Time;durP1;ratioP1;P1;durP2;ratioP2;P2;SDS_P1;SDS_P2;PMS_P1;PMS_P2;Temp;Humidity;BMP_temperature;BMP_pressure;BME280_temperature;BME280_humidity;BME280_pressure;Samples;Min_cycle;Max_cycle;Signal;HPM_P1;HPM_P2
2023/12/03 00:00:53;;;;;;;;;;;;;;;18.31;62.35;99692.34;7393295;19;1509;-78
2023/12/03 00:03:22;;;;;;;;;;;;;;;18.26;62.54;99687.44;7393912;19;1852;-78
2023/12/03 00:05:50;;;;;;;;;;;;;;;18.27;62.49;99692.63;7396065;19;1550;-78
2023/12/03 00:08:19;;;;;;;;;;;;;;;18.27;62.45;99703.34;7395207;19;1775;-78
2023/12/03 00:10:51;;;;;;;;;;;;;;;18.23;62.56;99698.47;7394263;19;1609;-78
2023/12/03 00:13:19;;;;;;;;;;;;;;;18.22;62.46;99712.81;7394819;19;1906;-78
2023/12/03 00:15:48;;;;;;;;;;;;;;;18.26;62.48;99708.84;7394626;19;1823;-78
2023/12/03 00:18:16;;;;;;;;;;;;;;;18.26;62.49;99730.25;7395672;19;1874;-77
2023/12/03 00:20:46;;;;;;;;;;;;;;;18.24;62.27;99733.09;7394264;19;1776;-78
2023/12/03 00:23:15;;;;;;;;;;;;;;;18.26;62.52;99743.63;7395601;19;1840;-78
2023/12/03 00:25:43;;;;;;;;;;;;;;;18.23;62.50;99736.75;7394844;19;1815;-78
2023/12/03 00:28:14;;;;;;;;;;;;;;;18.25;62.44;99745.47;7394617;19;1811;-78
2023/12/03 00:30:42;;;;;;;;;;;;;;;18.26;62.48;99754.31;7394436;19;1747;-78
2023/12/03 00:33:11;;;;;;;;;;;;;;;18.22;62.67;99739.59;7392443;19;1737;-78
2023/12/03 00:35:39;;;;;;;;;;;;;;;18.22;62.71;99736.91;7393076;19;1600;-78
2023/12/03 00:38:08;;;;;;;;;;;;;;;18.16;62.67;99761.59;7398673;19;1791;-79
2023/12/03 00:40:37;;;;;;;;;;;;;;;18.17;62.60;99761.47;7397303;19;1589;-78
2023/12/03 00:43:05;;;;;;;;;;;;;;;18.25;62.75;99769.56;7394587;19;1858;-79
2023/12/03 00:45:36;;;;;;;;;;;;;;;18.21;62.65;99770.84;7381811;19;1558;-78
2023/12/03 00:48:05;;;;;;;;;;;;;;;18.23;62.71;99773.38;7396432;19;1737;-79
2023/12/03 00:50:33;;;;;;;;;;;;;;;18.24;62.87;99791.97;7393623;19;1482;-79
2023/12/03 00:53:02;;;;;;;;;;;;;;;17.77;62.56;99794.81;7393941;19;1511;-79
2023/12/03 00:55:30;;;;;;;;;;;;;;;18.24;62.77;99844.63;7396331;19;1562;-77
2023/12/03 00:57:59;;;;;;;;;;;;;;;18.25;62.34;99863.22;7395895;19;1392;-78
2023/12/03 01:00:27;;;;;;;;;;;;;;;18.22;62.57;99901.00;7397925;19;1930;-79
2023/12/03 01:02:58;;;;;;;;;;;;;;;18.22;62.55;99881.41;7395713;19;1854;-79
2023/12/03 01:05:26;;;;;;;;;;;;;;;18.24;62.32;99904.38;7394880;19;1776;-79
2023/12/03 01:07:55;;;;;;;;;;;;;;;18.22;62.39;99901.00;7397733;19;1387;-79
2023/12/03 01:10:24;;;;;;;;;;;;;;;18.22;62.68;99895.66;7398146;19;1810;-78
2023/12/03 01:12:53;;;;;;;;;;;;;;;18.29;62.54;99918.13;7396792;19;1472;-78
2023/12/03 01:15:21;;;;;;;;;;;;;;;18.25;62.64;99919.41;7397038;19;1898;-78
2023/12/03 01:17:50;;;;;;;;;;;;;;;18.21;62.70;99928.75;7396346;19;1496;-79
2023/12/03 01:20:21;;;;;;;;;;;;;;;18.23;62.53;99923.25;7397132;19;1496;-78
2023/12/03 01:22:49;;;;;;;;;;;;;;;18.22;62.60;99927.75;7400156;19;1825;-79
2023/12/03 01:25:18;;;;;;;;;;;;;;;18.23;62.59;99917.91;7403925;19;1581;-79
2023/12/03 01:27:46;;;;;;;;;;;;;;;18.25;62.56;99924.78;7404550;19;1791;-78
2023/12/03 01:30:15;;;;;;;;;;;;;;;18.22;62.59;99918.88;7402157;19;1692;-79
2023/12/03 01:32:44;;;;;;;;;;;;;;;18.24;62.61;99924.91;7405859;19;1880;-78
2023/12/03 01:35:12;;;;;;;;;;;;;;;18.19;62.65;99925.38;7403742;19;1561;-79
2023/12/03 01:37:43;;;;;;;;;;;;;;;18.22;62.78;99930.44;7406094;19;1918;-80
2023/12/03 01:40:12;;;;;;;;;;;;;;;18.18;62.89;99915.66;7406090;19;1913;-79
2023/12/03 01:42:40;;;;;;;;;;;;;;;18.16;62.80;99923.00;7403520;19;1817;-80
2023/12/03 01:45:09;;;;;;;;;;;;;;;18.20;62.70;99929.72;7392994;19;1586;-79
2023/12/03 01:47:38;;;;;;;;;;;;;;;18.17;62.74;99931.88;7404459;19;1751;-79
2023/12/03 01:50:07;;;;;;;;;;;;;;;18.18;62.78;99936.22;7406005;19;1603;-80
2023/12/03 01:52:36;;;;;;;;;;;;;;;18.21;62.61;99926.06;7405888;19;1025;-79
2023/12/03 01:55:08;;;;;;;;;;;;;;;18.19;62.64;99920.03;7403947;19;1493;-80
2023/12/03 01:57:37;;;;;;;;;;;;;;;18.16;62.81;99922.16;7400396;19;1814;-79
2023/12/03 02:00:06;;;;;;;;;;;;;;;18.21;62.92;99912.69;7402108;19;1516;-79
2023/12/03 02:02:34;;;;;;;;;;;;;;;18.16;62.79;99920.31;7401453;19;1914;-78
2023/12/03 02:05:03;;;;;;;;;;;;;;;18.15;62.81;99915.13;7402120;19;1728;-79
2023/12/03 02:07:31;;;;;;;;;;;;;;;18.13;62.86;99935.84;7400905;19;1845;-79
2023/12/03 02:10:00;;;;;;;;;;;;;;;18.18;62.93;99925.53;7401108;19;1915;-81
2023/12/03 02:12:31;;;;;;;;;;;;;;;18.08;62.89;99933.59;7400266;19;1933;-79
2023/12/03 02:14:59;;;;;;;;;;;;;;;18.12;62.83;99934.16;7398312;19;1579;-79
2023/12/03 02:17:27;;;;;;;;;;;;;;;18.12;63.07;99932.31;7400996;19;1739;-79
2023/12/03 02:19:57;;;;;;;;;;;;;;;18.15;62.76;99953.44;7399529;19;1792;-79
2023/12/03 02:22:25;;;;;;;;;;;;;;;18.02;62.88;99952.94;7400277;19;1802;-78
2023/12/03 02:24:56;;;;;;;;;;;;;;;18.12;63.00;99943.00;7398060;19;1806;-78
2023/12/03 02:27:25;;;;;;;;;;;;;;;18.13;63.09;99949.22;7397019;19;1748;-78
2023/12/03 02:29:53;;;;;;;;;;;;;;;18.13;62.94;99955.41;7398026;19;1541;-78
2023/12/03 02:32:21;;;;;;;;;;;;;;;18.16;62.81;99955.09;7397561;19;1572;-79
2023/12/03 02:34:49;;;;;;;;;;;;;;;18.47;62.05;99962.81;7398856;19;1517;-78
2023/12/03 02:37:19;;;;;;;;;;;;;;;19.26;60.41;99974.59;7399623;19;1252;-78
2023/12/03 02:39:48;;;;;;;;;;;;;;;20.09;58.33;99982.09;7400051;19;1811;-79
2023/12/03 02:42:21;;;;;;;;;;;;;;;20.57;56.86;99969.84;7398039;19;1601;-78
2023/12/03 02:44:47;;;;;;;;;;;;;;;20.71;56.58;99975.59;7398117;19;1847;-79
2023/12/03 02:47:15;;;;;;;;;;;;;;;20.76;56.55;99978.63;7388426;19;1536;-79
2023/12/03 02:49:45;;;;;;;;;;;;;;;20.81;56.67;99982.50;7399602;19;1564;-80
2023/12/03 02:52:13;;;;;;;;;;;;;;;20.84;56.37;99998.28;7402100;19;1306;-79
2023/12/03 02:54:41;;;;;;;;;;;;;;;20.86;56.50;100004.31;7402172;19;1944;-80
2023/12/03 02:57:10;;;;;;;;;;;;;;;20.84;56.58;100000.13;7399960;19;1819;-81
2023/12/03 02:59:41;;;;;;;;;;;;;;;20.92;56.50;100005.50;7401644;19;1794;-80
2023/12/03 03:02:09;;;;;;;;;;;;;;;20.93;56.28;100001.81;7403000;19;1756;-81
2023/12/03 03:04:37;;;;;;;;;;;;;;;21.00;56.40;100018.13;7396331;19;1856;-81
2023/12/03 03:07:06;;;;;;;;;;;;;;;21.03;56.25;100013.25;7399250;19;1631;-81
2023/12/03 03:09:34;;;;;;;;;;;;;;;21.04;56.17;100025.66;7397471;19;1720;-81
2023/12/03 03:12:03;;;;;;;;;;;;;;;21.08;56.10;100010.06;7399283;19;1507;-81
2023/12/03 03:14:31;;;;;;;;;;;;;;;21.11;55.89;100025.00;7401000;19;1501;-81
2023/12/03 03:17:03;;;;;;;;;;;;;;;21.01;56.43;100020.66;7401191;19;1660;-81
2023/12/03 03:19:32;;;;;;;;;;;;;;;20.93;56.70;100026.03;7401764;19;1486;-81
2023/12/03 03:22:00;;;;;;;;;;;;;;;20.90;56.61;100031.72;7400708;19;1407;-80
2023/12/03 03:24:28;;;;;;;;;;;;;;;20.79;56.75;100026.66;7403425;19;1842;-81
2023/12/03 03:26:59;;;;;;;;;;;;;;;20.73;56.92;100028.16;7404788;19;1791;-81
2023/12/03 03:29:27;;;;;;;;;;;;;;;20.94;56.51;100030.38;7404553;19;1882;-81
2023/12/03 03:31:56;;;;;;;;;;;;;;;20.99;56.46;100030.72;7399724;19;1752;-81
2023/12/03 03:34:27;;;;;;;;;;;;;;;21.08;56.32;100023.50;7398770;19;1512;-81
2023/12/03 03:36:56;;;;;;;;;;;;;;;21.21;56.03;100042.66;7401521;19;1724;-80
2023/12/03 03:39:24;;;;;;;;;;;;;;;21.25;55.85;100048.56;7400044;19;1855;-80
2023/12/03 03:41:53;;;;;;;;;;;;;;;21.23;55.87;100050.56;7399391;19;1086;-78
2023/12/03 03:44:22;;;;;;;;;;;;;;;21.16;56.10;100042.31;7395562;19;1855;-79
2023/12/03 03:46:51;;;;;;;;;;;;;;;21.09;56.06;100035.09;7389702;19;1910;-79
2023/12/03 03:49:19;;;;;;;;;;;;;;;21.11;56.16;100046.50;7397677;19;1748;-78
2023/12/03 03:51:50;;;;;;;;;;;;;;;20.99;56.49;100046.00;7399070;19;1640;-78
2023/12/03 03:54:19;;;;;;;;;;;;;;;20.94;56.72;100054.56;7396833;19;1938;-79
2023/12/03 03:56:48;;;;;;;;;;;;;;;21.12;56.19;100059.78;7397816;19;1911;-79
2023/12/03 03:59:16;;;;;;;;;;;;;;;21.10;56.28;100044.84;7399463;19;1709;-79
2023/12/03 04:01:45;;;;;;;;;;;;;;;20.71;57.25;100061.56;7400737;19;1741;-79
2023/12/03 04:04:14;;;;;;;;;;;;;;;20.18;58.63;100059.00;7399311;19;1860;-79
2023/12/03 04:06:53;;;;;;;;;;;;;;;19.83;59.32;100063.47;7402623;19;1612;-79
2023/12/03 04:09:21;;;;;;;;;;;;;;;19.64;59.65;100077.94;7401917;19;1727;-79
2023/12/03 04:11:49;;;;;;;;;;;;;;;19.51;60.14;100080.16;7399620;19;1727;-80
2023/12/03 04:14:19;;;;;;;;;;;;;;;19.41;60.11;100099.00;7399481;19;1716;-80
2023/12/03 04:16:56;;;;;;;;;;;;;;;19.32;60.54;100077.66;7403253;19;1480;-80
2023/12/03 04:19:25;;;;;;;;;;;;;;;19.25;60.55;100088.16;7403703;19;1098;-80
2023/12/03 04:21:56;;;;;;;;;;;;;;;19.21;60.92;100084.09;7400729;19;1583;-80
2023/12/03 04:24:24;;;;;;;;;;;;;;;19.49;60.44;100087.53;7397061;19;1842;-79
2023/12/03 04:26:52;;;;;;;;;;;;;;;20.09;58.95;100100.19;7398588;19;1755;-79
2023/12/03 04:29:21;;;;;;;;;;;;;;;20.18;58.43;100090.38;7400760;19;1819;-81
2023/12/03 04:31:49;;;;;;;;;;;;;;;19.79;59.25;100099.69;7404605;19;1198;-78
2023/12/03 04:34:17;;;;;;;;;;;;;;;19.47;60.06;100106.44;7402655;19;1840;-82
2023/12/03 04:36:45;;;;;;;;;;;;;;;19.30;60.46;100120.72;7403895;19;1473;-82
2023/12/03 04:39:16;;;;;;;;;;;;;;;19.22;60.65;100117.97;7397276;19;1566;-81
2023/12/03 04:41:45;;;;;;;;;;;;;;;19.21;61.02;100130.50;7399516;19;1681;-80
2023/12/03 04:44:13;;;;;;;;;;;;;;;19.73;59.58;100132.50;7398516;19;1858;-81
2023/12/03 04:46:42;;;;;;;;;;;;;;;20.16;58.78;100138.84;7400879;19;1234;-80
2023/12/03 04:49:11;;;;;;;;;;;;;;;20.09;58.85;100140.47;7402372;19;1487;-80
2023/12/03 04:51:41;;;;;;;;;;;;;;;19.70;59.65;100148.06;7404493;19;1849;-82
2023/12/03 04:54:09;;;;;;;;;;;;;;;19.44;60.20;100154.19;7407392;19;1971;-80
2023/12/03 04:56:52;;;;;;;;;;;;;;;19.29;60.54;100156.53;7407168;19;1946;-82
2023/12/03 05:02:19;;;;;;;;;;;;;;;19.65;59.90;100178.84;7441837;19;1423;-82
2023/12/03 05:04:51;;;;;;;;;;;;;;;20.11;58.82;100178.72;7426229;19;1822;-82
2023/12/03 05:07:32;;;;;;;;;;;;;;;20.04;58.67;100186.56;7411634;19;1133;-82
2023/12/03 05:10:00;;;;;;;;;;;;;;;19.68;59.69;100200.00;7413295;19;1628;-80
2023/12/03 05:12:41;;;;;;;;;;;;;;;19.43;60.28;100190.88;7414289;19;954;-80
2023/12/03 05:15:10;;;;;;;;;;;;;;;19.24;60.86;100201.75;7411408;19;1146;-80
2023/12/03 05:17:46;;;;;;;;;;;;;;;19.16;61.29;100215.91;7411190;19;1483;-79
2023/12/03 05:20:24;;;;;;;;;;;;;;;19.58;60.09;100225.22;7411525;19;1411;-78
2023/12/03 05:22:53;;;;;;;;;;;;;;;20.09;58.84;100229.03;7413300;19;1657;-79
2023/12/03 05:25:22;;;;;;;;;;;;;;;20.04;58.98;100234.88;7411120;19;1854;-79
2023/12/03 05:28:05;;;;;;;;;;;;;;;19.62;59.71;100242.69;7414022;19;1594;-79
2023/12/03 05:30:40;;;;;;;;;;;;;;;19.33;60.38;100243.72;7414969;19;1839;-79
2023/12/03 05:33:09;;;;;;;;;;;;;;;19.23;60.83;100254.50;7413787;19;1487;-79
2023/12/03 05:35:37;;;;;;;;;;;;;;;19.16;61.35;100274.00;7414767;19;1590;-79
2023/12/03 05:38:05;;;;;;;;;;;;;;;19.66;60.11;100265.53;7414427;19;1537;-79
2023/12/03 05:40:34;;;;;;;;;;;;;;;20.12;58.98;100290.50;7414305;19;1500;-79
2023/12/03 05:43:05;;;;;;;;;;;;;;;19.97;59.50;100275.91;7413511;19;1487;-79
2023/12/03 05:45:33;;;;;;;;;;;;;;;19.55;60.90;100269.25;7413095;19;1849;-79
2023/12/03 05:48:01;;;;;;;;;;;;;;;19.38;61.23;100268.25;7411459;19;1488;-79
2023/12/03 05:50:30;;;;;;;;;;;;;;;19.28;61.04;100288.91;7412593;19;1423;-80
2023/12/03 05:52:58;;;;;;;;;;;;;;;19.19;61.32;100305.88;7412585;19;1633;-80
2023/12/03 05:55:27;;;;;;;;;;;;;;;19.47;61.29;100288.78;7412167;19;1501;-80
2023/12/03 05:57:55;;;;;;;;;;;;;;;20.04;59.83;100290.41;7411556;19;1637;-79
2023/12/03 06:00:26;;;;;;;;;;;;;;;20.26;59.31;100300.66;7410945;19;1477;-80
2023/12/03 06:02:55;;;;;;;;;;;;;;;19.84;60.60;100295.94;7412973;19;1270;-79
2023/12/03 06:05:23;;;;;;;;;;;;;;;19.64;60.96;100310.44;7411209;19;1906;-80
2023/12/03 06:07:51;;;;;;;;;;;;;;;19.93;60.30;100304.06;7409654;19;1325;-79
2023/12/03 06:10:20;;;;;;;;;;;;;;;20.27;59.72;100315.78;7416285;19;1937;-78
2023/12/03 06:12:48;;;;;;;;;;;;;;;20.57;58.79;100324.44;7415856;19;1772;-79
2023/12/03 06:15:17;;;;;;;;;;;;;;;20.12;59.91;100329.91;7411917;19;1537;-79
2023/12/03 06:17:48;;;;;;;;;;;;;;;19.70;60.92;100322.41;7412473;19;1479;-77
2023/12/03 06:20:17;;;;;;;;;;;;;;;19.75;60.88;100326.34;7417007;19;1404;-79
2023/12/03 06:22:47;;;;;;;;;;;;;;;20.18;59.97;100337.34;7414239;19;1616;-78
2023/12/03 06:25:16;;;;;;;;;;;;;;;20.49;59.09;100343.13;7412544;19;1829;-78
2023/12/03 06:27:45;;;;;;;;;;;;;;;20.47;58.38;100334.41;7410358;19;1508;-78
2023/12/03 06:30:14;;;;;;;;;;;;;;;20.06;61.42;100334.88;7414541;19;1607;-78
2023/12/03 06:32:42;;;;;;;;;;;;;;;19.78;61.71;100354.72;7412422;19;1529;-79
2023/12/03 06:35:15;;;;;;;;;;;;;;;19.77;61.44;100343.13;7414426;19;1296;-80
2023/12/03 06:37:44;;;;;;;;;;;;;;;20.22;60.55;100358.34;7408276;19;1460;-79
2023/12/03 06:40:14;;;;;;;;;;;;;;;20.49;60.31;100361.94;7410271;19;1791;-78
2023/12/03 06:42:43;;;;;;;;;;;;;;;20.28;62.56;100378.38;7408372;19;1322;-78
2023/12/03 06:45:12;;;;;;;;;;;;;;;19.92;62.86;100374.84;7405328;19;1855;-77
2023/12/03 06:47:40;;;;;;;;;;;;;;;19.80;63.77;100375.03;7396950;19;1851;-80
2023/12/03 06:50:09;;;;;;;;;;;;;;;20.23;62.68;100378.84;7409232;19;1476;-78
2023/12/03 06:52:41;;;;;;;;;;;;;;;20.48;62.16;100388.97;7412207;19;1493;-78
2023/12/03 06:55:09;;;;;;;;;;;;;;;20.63;62.31;100393.69;7407302;19;1386;-78
2023/12/03 06:57:38;;;;;;;;;;;;;;;20.23;63.50;100388.72;7403783;19;1392;-77
2023/12/03 07:00:07;;;;;;;;;;;;;;;19.89;64.68;100410.00;7403875;19;1452;-77
2023/12/03 07:02:35;;;;;;;;;;;;;;;19.72;64.97;100414.34;7404020;19;1428;-77
2023/12/03 07:05:04;;;;;;;;;;;;;;;20.16;63.70;100418.03;7402356;19;1854;-78
2023/12/03 07:07:33;;;;;;;;;;;;;;;20.46;62.52;100435.63;7404953;19;1763;-77
2023/12/03 07:10:05;;;;;;;;;;;;;;;20.35;63.13;100443.06;7401051;19;1580;-77
2023/12/03 07:12:33;;;;;;;;;;;;;;;19.99;64.24;100459.09;6891446;19;9999693;-78
2023/12/03 07:15:02;;;;;;;;;;;;;;;19.62;62.35;100460.81;6886557;19;10000417;-79
2023/12/03 07:17:30;;;;;;;;;;;;;;;19.70;62.33;100465.44;7401622;19;1592;-79
2023/12/03 07:19:59;;;;;;;;;;;;;;;19.98;61.40;100463.63;7401239;19;1668;-79
2023/12/03 07:22:39;;;;;;;;;;;;;;;20.51;59.84;100483.50;7387660;19;10000120;-79
2023/12/03 07:25:10;;;;;;;;;;;;;;;20.67;58.87;100490.91;7404249;19;1848;-80
2023/12/03 07:27:40;;;;;;;;;;;;;;;20.54;58.98;100485.91;7402089;19;1555;-79
2023/12/03 07:30:09;;;;;;;;;;;;;;;20.51;59.08;100502.31;7403104;19;1513;-79
2023/12/03 07:32:37;;;;;;;;;;;;;;;20.43;59.37;100521.91;7398651;19;1514;-80
2023/12/03 07:35:09;;;;;;;;;;;;;;;20.49;59.21;100530.31;7400489;19;1420;-79
2023/12/03 07:37:38;;;;;;;;;;;;;;;20.44;59.13;100517.34;7408989;19;1592;-79
2023/12/03 07:40:08;;;;;;;;;;;;;;;20.47;59.09;100527.78;7402743;19;1864;-79
2023/12/03 07:42:39;;;;;;;;;;;;;;;20.46;59.11;100535.00;7404262;19;1854;-79
2023/12/03 07:45:09;;;;;;;;;;;;;;;20.48;59.09;100548.28;7404066;19;1830;-79
2023/12/03 07:47:37;;;;;;;;;;;;;;;20.51;59.13;100550.66;7394098;19;1779;-79
2023/12/03 07:50:07;;;;;;;;;;;;;;;20.55;59.03;100561.94;7404822;19;1756;-79
2023/12/03 07:52:35;;;;;;;;;;;;;;;20.51;59.03;100539.91;7403695;19;1481;-79
2023/12/03 07:55:04;;;;;;;;;;;;;;;20.54;59.01;100555.75;7401425;19;1929;-79
2023/12/03 07:57:32;;;;;;;;;;;;;;;20.51;59.10;100549.81;7395042;19;1767;-79
2023/12/03 08:00:07;;;;;;;;;;;;;;;20.61;58.73;100562.25;7395208;19;1632;-79
2023/12/03 08:02:36;;;;;;;;;;;;;;;20.57;58.82;100563.50;7395099;19;1488;-77
2023/12/03 08:05:04;;;;;;;;;;;;;;;20.62;58.35;100577.34;7398509;19;1956;-80
2023/12/03 08:07:36;;;;;;;;;;;;;;;20.69;58.28;100572.25;7397006;19;1461;-79
2023/12/03 08:10:05;;;;;;;;;;;;;;;20.64;58.39;100578.06;7400035;19;1574;-79
2023/12/03 08:12:34;;;;;;;;;;;;;;;20.60;58.63;100570.44;7395590;19;1532;-78
2023/12/03 08:15:02;;;;;;;;;;;;;;;20.09;59.96;100566.44;7391833;19;1641;-77
2023/12/03 08:17:33;;;;;;;;;;;;;;;19.78;60.91;100580.09;7388948;19;1414;-79
2023/12/03 08:20:02;;;;;;;;;;;;;;;19.74;61.04;100574.19;7389802;19;1467;-79
2023/12/03 08:22:30;;;;;;;;;;;;;;;20.23;59.58;100580.22;7390226;19;1699;-79
2023/12/03 08:24:59;;;;;;;;;;;;;;;20.31;59.81;100578.63;7391044;19;1870;-78
2023/12/03 08:27:27;;;;;;;;;;;;;;;19.95;60.50;100586.53;7377802;19;1641;-78
2023/12/03 08:29:56;;;;;;;;;;;;;;;19.69;61.20;100581.78;7386015;19;1467;-79
2023/12/03 08:32:24;;;;;;;;;;;;;;;19.70;61.25;100594.22;7385486;19;1438;-79
2023/12/03 08:34:55;;;;;;;;;;;;;;;20.00;60.29;100592.31;7387769;19;1708;-77
2023/12/03 08:37:23;;;;;;;;;;;;;;;20.30;59.71;100590.38;7389943;19;1393;-78
2023/12/03 08:39:52;;;;;;;;;;;;;;;20.10;60.12;100590.44;7386194;19;1520;-79
2023/12/03 08:42:20;;;;;;;;;;;;;;;19.84;60.74;100577.69;7394079;19;1484;-77
2023/12/03 08:44:49;;;;;;;;;;;;;;;19.66;61.10;100590.97;7394732;19;1852;-77
2023/12/03 08:47:17;;;;;;;;;;;;;;;19.83;60.42;100575.97;7383883;19;1588;-78
2023/12/03 08:49:45;;;;;;;;;;;;;;;20.14;59.58;100585.63;7392374;19;1563;-75
2023/12/03 08:52:16;;;;;;;;;;;;;;;20.61;58.76;100607.94;7393021;19;1498;-77
2023/12/03 08:54:46;;;;;;;;;;;;;;;20.30;59.28;100604.63;7397239;19;1620;-80
2023/12/03 08:57:18;;;;;;;;;;;;;;;19.90;60.47;100602.25;7391236;19;1464;-77
2023/12/03 08:59:49;;;;;;;;;;;;;;;19.63;61.15;100587.72;7390618;19;1405;-77
2023/12/03 09:02:22;;;;;;;;;;;;;;;19.84;60.55;100593.78;7393021;19;1529;-79
2023/12/03 09:04:51;;;;;;;;;;;;;;;20.16;59.76;100589.84;7396635;19;1839;-77
2023/12/03 09:07:24;;;;;;;;;;;;;;;20.50;58.71;100581.22;7392774;19;1650;-78
2023/12/03 09:09:52;;;;;;;;;;;;;;;20.09;59.73;100587.91;7392192;19;1481;-79
2023/12/03 09:12:21;;;;;;;;;;;;;;;19.79;60.95;100588.00;7394182;19;1600;-80
2023/12/03 09:14:50;;;;;;;;;;;;;;;19.63;61.12;100601.97;7394744;19;1366;-80
2023/12/03 09:17:19;;;;;;;;;;;;;;;19.96;59.49;100585.56;7391136;19;1728;-80
2023/12/03 09:19:49;;;;;;;;;;;;;;;20.30;58.86;100593.06;7394379;19;1550;-79
2023/12/03 09:22:17;;;;;;;;;;;;;;;20.47;58.34;100592.25;7394781;19;1413;-78
2023/12/03 09:24:48;;;;;;;;;;;;;;;20.05;59.42;100601.63;7399323;19;1521;-82
2023/12/03 09:27:17;;;;;;;;;;;;;;;19.74;60.46;100605.53;7393478;19;1484;-80
2023/12/03 09:29:46;;;;;;;;;;;;;;;19.70;60.07;100599.56;7392615;19;1796;-81
2023/12/03 09:32:14;;;;;;;;;;;;;;;20.13;59.07;100594.66;7388749;19;1826;-80
2023/12/03 09:34:42;;;;;;;;;;;;;;;20.34;58.47;100597.16;7391559;19;1752;-80
2023/12/03 09:37:12;;;;;;;;;;;;;;;20.21;58.79;100601.03;7392518;19;1523;-82
2023/12/03 09:39:40;;;;;;;;;;;;;;;19.84;59.96;100601.81;7391362;19;1784;-80
2023/12/03 09:42:12;;;;;;;;;;;;;;;19.61;60.58;100621.88;7393698;19;1819;-79
2023/12/03 09:44:43;;;;;;;;;;;;;;;19.91;59.87;100614.66;7399874;19;1493;-81
2023/12/03 09:47:13;;;;;;;;;;;;;;;20.24;59.12;100607.91;7397053;19;1863;-80
2023/12/03 09:49:46;;;;;;;;;;;;;;;20.56;58.09;100606.63;7397112;19;1611;-79
2023/12/03 09:52:17;;;;;;;;;;;;;;;20.06;59.20;100607.84;7400595;19;1578;-79
2023/12/03 09:54:46;;;;;;;;;;;;;;;19.76;59.94;100617.81;7404246;19;1506;-79
2023/12/03 09:57:18;;;;;;;;;;;;;;;19.59;60.09;100618.50;7403251;19;1467;-80
2023/12/03 09:59:48;;;;;;;;;;;;;;;19.91;58.79;100622.72;7404190;19;1121;-82
2023/12/03 10:02:17;;;;;;;;;;;;;;;20.08;58.98;100635.38;7399729;19;1486;-78
2023/12/03 10:04:47;;;;;;;;;;;;;;;19.82;60.01;100648.59;6880652;19;9999686;-77
2023/12/03 10:07:18;;;;;;;;;;;;;;;19.57;60.76;100647.31;7395761;19;1914;-80
2023/12/03 10:09:47;;;;;;;;;;;;;;;19.34;61.16;100655.63;7399576;19;1598;-78
2023/12/03 10:12:19;;;;;;;;;;;;;;;19.24;61.56;100676.25;7394799;19;1388;-78
2023/12/03 10:14:48;;;;;;;;;;;;;;;19.17;62.07;100667.88;7394153;19;1811;-79
2023/12/03 10:17:20;;;;;;;;;;;;;;;19.43;61.21;100691.47;7395032;19;1609;-78
2023/12/03 10:19:48;;;;;;;;;;;;;;;19.98;59.83;100699.81;7394140;19;1560;-79
2023/12/03 10:22:32;;;;;;;;;;;;;;;20.02;59.85;100705.75;7396238;19;1608;-78
2023/12/03 10:25:00;;;;;;;;;;;;;;;19.62;61.35;100712.94;7391791;19;1712;-77
2023/12/03 10:27:33;;;;;;;;;;;;;;;19.42;62.53;100725.50;7391640;19;1850;-81
2023/12/03 10:30:01;;;;;;;;;;;;;;;19.26;63.21;100728.72;7396264;19;1793;-79
2023/12/03 10:32:30;;;;;;;;;;;;;;;19.17;63.65;100740.25;7396174;19;1491;-80
2023/12/03 10:34:59;;;;;;;;;;;;;;;19.38;63.39;100750.91;7400857;19;1609;-81
2023/12/03 10:37:28;;;;;;;;;;;;;;;19.95;62.11;100743.03;7399574;19;1526;-81
2023/12/03 10:39:58;;;;;;;;;;;;;;;19.83;63.54;100750.38;7400448;19;1740;-82
2023/12/03 10:42:27;;;;;;;;;;;;;;;19.47;64.33;100755.41;7403795;19;1869;-82
2023/12/03 10:45:07;;;;;;;;;;;;;;;19.30;64.90;100750.75;7401757;19;1827;-80
2023/12/03 10:47:36;;;;;;;;;;;;;;;18.67;64.73;100687.47;7389008;19;1837;-79
2023/12/03 10:50:05;;;;;;;;;;;;;;;19.10;64.95;100791.88;7399960;19;1455;-80
2023/12/03 10:52:35;;;;;;;;;;;;;;;19.58;64.03;100770.56;7395746;19;1499;-80
2023/12/03 10:55:03;;;;;;;;;;;;;;;19.77;63.70;100776.94;7395515;19;1740;-80
2023/12/03 10:57:32;;;;;;;;;;;;;;;19.47;65.17;100776.03;7400087;19;1419;-79
2023/12/03 11:00:09;;;;;;;;;;;;;;;19.06;64.71;100759.16;7399699;19;1864;-80
2023/12/03 11:02:42;;;;;;;;;;;;;;;19.05;65.13;100763.66;7401782;19;1474;-81
2023/12/03 11:05:13;;;;;;;;;;;;;;;19.35;64.14;100782.50;7400064;19;1690;-81
2023/12/03 11:07:42;;;;;;;;;;;;;;;19.74;62.87;100786.13;7399861;19;1866;-81
2023/12/03 11:10:12;;;;;;;;;;;;;;;19.55;64.39;100799.47;7401600;19;1796;-80
2023/12/03 11:12:41;;;;;;;;;;;;;;;19.32;64.74;100802.41;7402618;19;1251;-82
2023/12/03 11:15:13;;;;;;;;;;;;;;;19.14;65.08;100794.16;7402851;19;1921;-81
2023/12/03 11:17:44;;;;;;;;;;;;;;;19.03;65.75;100805.81;7401131;19;1492;-83
2023/12/03 11:20:15;;;;;;;;;;;;;;;19.68;63.97;100808.13;7399876;19;1600;-79
2023/12/03 11:22:57;;;;;;;;;;;;;;;19.83;63.61;100825.53;7398073;19;1566;-79
2023/12/03 11:25:27;;;;;;;;;;;;;;;19.41;65.37;100831.06;7397664;19;1743;-79
2023/12/03 11:27:55;;;;;;;;;;;;;;;19.16;65.59;100827.03;7396344;19;1831;-80
2023/12/03 11:30:40;;;;;;;;;;;;;;;19.07;65.84;100819.81;7400406;19;1405;-79
2023/12/03 11:33:13;;;;;;;;;;;;;;;19.52;64.96;100822.06;7399525;19;1365;-80
2023/12/03 11:35:42;;;;;;;;;;;;;;;19.91;63.87;100815.94;7398632;19;1396;-80
2023/12/03 11:38:10;;;;;;;;;;;;;;;19.58;64.60;100831.41;7399260;19;1606;-79
2023/12/03 11:40:39;;;;;;;;;;;;;;;19.30;65.40;100833.88;7399694;19;1477;-80
2023/12/03 11:43:24;;;;;;;;;;;;;;;19.17;66.10;100835.94;7401609;19;1148;-82
2023/12/03 11:45:52;;;;;;;;;;;;;;;19.08;66.06;100819.66;7400982;19;1865;-83
2023/12/03 11:48:30;;;;;;;;;;;;;;;19.35;65.38;100836.13;7394889;19;1743;-83
2023/12/03 11:50:59;;;;;;;;;;;;;;;19.72;64.69;100847.13;7403846;19;1725;-83
2023/12/03 11:53:33;;;;;;;;;;;;;;;19.64;65.92;100842.44;7400842;19;1657;-83
2023/12/03 11:56:02;;;;;;;;;;;;;;;19.42;66.14;100851.56;7402734;19;1530;-83
2023/12/03 11:58:32;;;;;;;;;;;;;;;19.24;66.27;100843.31;7400043;19;1692;-84
2023/12/03 12:01:01;;;;;;;;;;;;;;;19.12;66.35;100854.22;7298390;19;1747;-85
2023/12/03 12:03:32;;;;;;;;;;;;;;;19.53;65.73;100876.56;7400878;19;1967;-85
2023/12/03 12:06:01;;;;;;;;;;;;;;;20.11;64.41;100870.50;7402022;19;1833;-84
2023/12/03 12:08:31;;;;;;;;;;;;;;;20.80;62.20;100859.56;7400722;19;1210;-84
2023/12/03 12:11:00;;;;;;;;;;;;;;;20.91;61.62;100853.19;7402894;19;1529;-84
2023/12/03 12:13:29;;;;;;;;;;;;;;;20.42;63.17;100876.56;7404603;19;1503;-82
2023/12/03 12:15:57;;;;;;;;;;;;;;;19.87;62.99;100874.41;7401044;19;1375;-82
2023/12/03 12:18:26;;;;;;;;;;;;;;;19.77;63.41;100874.38;7399759;19;1489;-81
2023/12/03 12:21:07;;;;;;;;;;;;;;;20.09;62.54;100889.41;7401158;19;1489;-82
2023/12/03 12:23:35;;;;;;;;;;;;;;;20.17;61.53;100881.50;7399553;19;2016;-81
2023/12/03 12:26:03;;;;;;;;;;;;;;;20.35;61.42;100889.75;7402037;19;1962;-83
2023/12/03 12:28:32;;;;;;;;;;;;;;;20.51;60.36;100905.25;7402084;19;1325;-82
2023/12/03 12:31:00;;;;;;;;;;;;;;;20.43;60.32;100889.88;7400122;19;1385;-79
2023/12/03 12:33:29;;;;;;;;;;;;;;;20.48;60.39;100899.34;7403148;19;1086;-81
2023/12/03 12:36:04;;;;;;;;;;;;;;;20.41;60.48;100909.78;7398347;19;1915;-81
2023/12/03 12:38:42;;;;;;;;;;;;;;;20.58;60.03;100911.78;7400445;19;1705;-81
2023/12/03 12:41:10;;;;;;;;;;;;;;;20.62;60.01;100907.84;7399952;19;1736;-83
2023/12/03 12:43:53;;;;;;;;;;;;;;;20.23;60.21;100926.63;7401091;19;1661;-83
2023/12/03 12:46:22;;;;;;;;;;;;;;;20.32;59.81;100932.97;7400567;19;1842;-83
2023/12/03 12:48:50;;;;;;;;;;;;;;;20.49;59.35;100946.69;7392230;19;1781;-83
2023/12/03 12:51:26;;;;;;;;;;;;;;;20.60;59.63;100951.97;7403196;19;1438;-84
2023/12/03 12:53:54;;;;;;;;;;;;;;;20.73;60.00;100959.72;7400132;19;1579;-84
2023/12/03 12:56:22;;;;;;;;;;;;;;;20.74;60.24;100964.13;7397211;19;1629;-82
2023/12/03 12:58:51;;;;;;;;;;;;;;;20.77;60.85;100969.19;7396283;19;1499;-82
2023/12/03 13:01:19;;;;;;;;;;;;;;;20.84;60.89;100975.72;7398758;19;1489;-83
2023/12/03 13:03:48;;;;;;;;;;;;;;;20.71;61.42;100967.97;7395922;19;1498;-83